Time;durP1;ratioP1;P1;durP2;ratioP2;P2;SDS_P1;SDS_P2;PMS_P1;PMS_P2;Temp;Humidity;BMP_temperature;BMP_pressure;BME280_temperature;BME280_humidity;BME280_pressure;Samples;Min_cycle;Max_cycle;Signal;HPM_P1;HPM_P2
2022/04/23 00:01:15;;;;;;;14.93;9.55;;;;;;;;;;5019152;28;20626;-70
2022/04/23 00:03:41;;;;;;;16.53;9.10;;;;;;;;;;5008652;28;20465;-70
2022/04/23 00:06:06;;;;;;;14.45;9.63;;;;;;;;;;5020540;28;20347;-69
2022/04/23 00:08:31;;;;;;;15.60;10.13;;;;;;;;;;5001547;28;20509;-70
2022/04/23 00:10:56;;;;;;;17.55;10.05;;;;;;;;;;5024710;28;20525;-70
2022/04/23 00:13:22;;;;;;;18.17;9.65;;;;;;;;;;5021391;28;20022;-70
2022/04/23 00:15:47;;;;;;;15.00;9.60;;;;;;;;;;5013327;28;20533;-70
2022/04/23 00:18:12;;;;;;;16.27;9.82;;;;;;;;;;5009123;28;20060;-70
2022/04/23 00:20:38;;;;;;;17.00;10.63;;;;;;;;;;4997588;28;20076;-70
2022/04/23 00:23:05;;;;;;;16.38;10.18;;;;;;;;;;5017020;28;20083;-69
2022/04/23 00:25:30;;;;;;;15.43;10.52;;;;;;;;;;5022011;28;20017;-70
2022/04/23 00:27:55;;;;;;;19.13;11.05;;;;;;;;;;5015524;28;20025;-70
2022/04/23 00:30:20;;;;;;;16.37;10.40;;;;;;;;;;5014228;28;20085;-70
2022/04/23 00:32:47;;;;;;;16.40;10.30;;;;;;;;;;5004345;28;20285;-70
2022/04/23 00:35:13;;;;;;;18.15;10.68;;;;;;;;;;5009118;28;20305;-69
2022/04/23 00:37:38;;;;;;;14.40;10.15;;;;;;;;;;5019097;28;20025;-70
2022/04/23 00:40:06;;;;;;;18.05;10.30;;;;;;;;;;5024018;28;20089;-70
2022/04/23 00:42:31;;;;;;;15.15;9.95;;;;;;;;;;5015207;28;20123;-70
2022/04/23 00:44:56;;;;;;;18.33;10.93;;;;;;;;;;5015195;28;20514;-70
2022/04/23 00:47:22;;;;;;;18.92;10.20;;;;;;;;;;5020592;28;20341;-69
2022/04/23 00:49:48;;;;;;;16.10;9.82;;;;;;;;;;5017307;28;20089;-70
2022/04/23 00:52:13;;;;;;;21.05;11.88;;;;;;;;;;5019496;28;20112;-71
2022/04/23 00:54:38;;;;;;;20.63;11.77;;;;;;;;;;5018760;28;20514;-72
2022/04/23 00:57:04;;;;;;;17.35;10.18;;;;;;;;;;5007158;28;20022;-68
2022/04/23 00:59:30;;;;;;;18.17;10.77;;;;;;;;;;5010565;28;20029;-70
2022/04/23 01:01:56;;;;;;;22.20;11.13;;;;;;;;;;5013874;28;20105;-70
2022/04/23 01:04:21;;;;;;;16.05;9.90;;;;;;;;;;5011486;28;20145;-70
2022/04/23 01:06:46;;;;;;;19.73;10.73;;;;;;;;;;4993021;28;20109;-70
2022/04/23 01:09:11;;;;;;;13.80;9.23;;;;;;;;;;5019510;28;20188;-71
2022/04/23 01:11:37;;;;;;;16.13;9.73;;;;;;;;;;5013318;28;20068;-70
2022/04/23 01:14:03;;;;;;;16.20;9.43;;;;;;;;;;5013889;28;20037;-70
2022/04/23 01:16:28;;;;;;;17.83;10.65;;;;;;;;;;5015335;28;20340;-70
2022/04/23 01:18:53;;;;;;;15.80;9.18;;;;;;;;;;4999799;28;20075;-70
2022/04/23 01:21:19;;;;;;;16.50;10.45;;;;;;;;;;5004409;28;20025;-70
2022/04/23 01:23:48;;;;;;;15.65;10.35;;;;;;;;;;5002952;28;20545;-70
2022/04/23 01:26:14;;;;;;;18.33;10.82;;;;;;;;;;5015003;28;20026;-71
2022/04/23 01:28:40;;;;;;;16.83;10.73;;;;;;;;;;5018700;28;20041;-71
2022/04/23 01:31:06;;;;;;;19.33;11.60;;;;;;;;;;5009371;28;20056;-70
2022/04/23 01:33:35;;;;;;;18.73;10.13;;;;;;;;;;5010949;28;20030;-70
2022/04/23 01:36:00;;;;;;;17.67;11.60;;;;;;;;;;5002530;28;20030;-69
2022/04/23 01:38:25;;;;;;;22.20;12.52;;;;;;;;;;5013079;28;20501;-69
2022/04/23 01:40:50;;;;;;;17.63;11.13;;;;;;;;;;5017343;28;20097;-68
2022/04/23 01:43:15;;;;;;;20.52;11.43;;;;;;;;;;5015147;28;20781;-69
2022/04/23 01:45:41;;;;;;;19.23;12.32;;;;;;;;;;5019130;28;20010;-69
2022/04/23 01:48:06;;;;;;;21.50;12.30;;;;;;;;;;5014842;28;20017;-70
2022/04/23 01:50:31;;;;;;;19.98;12.80;;;;;;;;;;5010353;28;20084;-68
2022/04/23 01:52:57;;;;;;;27.85;13.52;;;;;;;;;;5017411;28;20028;-68
2022/04/23 01:55:22;;;;;;;21.92;13.23;;;;;;;;;;5019772;28;20033;-68
2022/04/23 01:57:47;;;;;;;22.97;13.50;;;;;;;;;;5023628;28;20066;-68
2022/04/23 02:00:15;;;;;;;21.30;14.10;;;;;;;;;;5016696;28;20769;-71
2022/04/23 02:02:40;;;;;;;23.10;13.05;;;;;;;;;;5023133;28;20275;-68
2022/04/23 02:05:06;;;;;;;25.75;13.57;;;;;;;;;;5010053;28;20018;-70
2022/04/23 02:07:38;;;;;;;21.42;14.20;;;;;;;;;;5016631;28;20525;-70
2022/04/23 02:10:04;;;;;;;23.55;12.98;;;;;;;;;;5013526;28;20113;-70
2022/04/23 02:12:30;;;;;;;22.73;12.77;;;;;;;;;;5019773;28;20655;-70
2022/04/23 02:14:55;;;;;;;22.88;13.48;;;;;;;;;;4998850;28;20050;-72
2022/04/23 02:17:20;;;;;;;24.63;14.52;;;;;;;;;;5022257;28;20095;-70
2022/04/23 02:19:45;;;;;;;24.73;14.40;;;;;;;;;;5019415;28;20104;-70
2022/04/23 02:22:10;;;;;;;22.33;13.10;;;;;;;;;;5017599;28;20160;-70
2022/04/23 02:24:36;;;;;;;22.55;13.50;;;;;;;;;;5024313;28;20291;-70
2022/04/23 02:27:02;;;;;;;25.73;14.30;;;;;;;;;;5023915;28;20020;-70
2022/04/23 02:29:27;;;;;;;20.92;12.63;;;;;;;;;;5018683;28;20013;-70
2022/04/23 02:31:52;;;;;;;27.40;13.87;;;;;;;;;;5019041;28;20726;-69
2022/04/23 02:34:18;;;;;;;20.77;13.27;;;;;;;;;;5020231;28;20276;-68
2022/04/23 02:36:43;;;;;;;20.70;13.00;;;;;;;;;;5026022;28;20359;-68
2022/04/23 02:39:09;;;;;;;23.98;15.10;;;;;;;;;;5021630;28;20096;-68
2022/04/23 02:41:34;;;;;;;27.27;13.98;;;;;;;;;;5021698;28;20057;-68
2022/04/23 02:43:59;;;;;;;21.97;13.93;;;;;;;;;;5028152;22;20623;-84
2022/04/23 02:46:25;;;;;;;23.05;14.43;;;;;;;;;;5016260;28;20346;-85
2022/04/23 02:48:51;;;;;;;24.45;13.75;;;;;;;;;;5004277;28;20025;-85
2022/04/23 02:51:16;;;;;;;22.05;13.95;;;;;;;;;;5010982;28;20087;-85
2022/04/23 02:53:44;;;;;;;24.50;14.68;;;;;;;;;;5004387;28;20048;-85
2022/04/23 02:56:13;;;;;;;25.48;15.50;;;;;;;;;;5007002;28;20034;-85
2022/04/23 02:58:38;;;;;;;27.95;15.73;;;;;;;;;;5006699;28;20081;-84
2022/04/23 03:01:03;;;;;;;27.00;15.65;;;;;;;;;;5004506;28;20034;-86
2022/04/23 03:03:29;;;;;;;23.33;14.63;;;;;;;;;;4994985;28;20061;-85
2022/04/23 03:05:55;;;;;;;25.33;15.05;;;;;;;;;;5006790;28;20036;-85
2022/04/23 03:08:23;;;;;;;28.90;14.82;;;;;;;;;;4997059;28;20021;-86
2022/04/23 03:10:48;;;;;;;25.33;14.60;;;;;;;;;;5005718;28;20014;-86
2022/04/23 03:13:15;;;;;;;28.98;15.07;;;;;;;;;;5002866;28;20037;-85
2022/04/23 03:15:44;;;;;;;31.83;15.98;;;;;;;;;;5000536;28;20474;-86
2022/04/23 03:18:10;;;;;;;26.77;15.68;;;;;;;;;;4989775;28;20014;-85
2022/04/23 03:20:36;;;;;;;29.10;16.48;;;;;;;;;;5006858;28;20014;-85
2022/04/23 03:23:02;;;;;;;31.52;16.25;;;;;;;;;;5007527;28;20462;-86
2022/04/23 03:25:27;;;;;;;27.70;15.90;;;;;;;;;;5008338;28;20049;-85
2022/04/23 03:27:52;;;;;;;25.88;15.32;;;;;;;;;;5006900;28;20445;-85
2022/04/23 03:30:18;;;;;;;28.10;16.67;;;;;;;;;;5019730;28;20434;-84
2022/04/23 03:32:43;;;;;;;27.33;16.55;;;;;;;;;;5011713;28;20021;-85
2022/04/23 03:35:08;;;;;;;27.38;15.75;;;;;;;;;;5000739;28;20029;-84
2022/04/23 03:37:34;;;;;;;25.77;16.02;;;;;;;;;;5020412;28;20037;-85
2022/04/23 03:39:59;;;;;;;28.40;15.45;;;;;;;;;;5008330;28;20032;-85
2022/04/23 03:42:25;;;;;;;26.33;16.15;;;;;;;;;;5024543;28;20102;-85
2022/04/23 03:44:50;;;;;;;30.30;16.70;;;;;;;;;;5017736;28;20113;-85
2022/04/23 03:47:15;;;;;;;32.92;17.70;;;;;;;;;;5016512;28;20021;-84
2022/04/23 03:49:41;;;;;;;27.88;16.88;;;;;;;;;;5012516;28;20018;-84
2022/04/23 03:52:06;;;;;;;26.80;16.05;;;;;;;;;;4995097;28;20466;-84
2022/04/23 03:54:31;;;;;;;26.83;16.50;;;;;;;;;;5000809;28;20026;-84
2022/04/23 03:56:56;;;;;;;27.10;16.30;;;;;;;;;;5011448;28;20079;-85
2022/04/23 03:59:23;;;;;;;30.00;16.13;;;;;;;;;;4999087;28;20273;-85
2022/04/23 04:01:49;;;;;;;30.58;16.30;;;;;;;;;;5000912;28;20034;-85
2022/04/23 04:04:14;;;;;;;26.38;16.70;;;;;;;;;;5005856;28;20371;-86
2022/04/23 04:06:40;;;;;;;27.63;16.52;;;;;;;;;;5010049;28;20025;-85
2022/04/23 04:09:05;;;;;;;27.77;16.40;;;;;;;;;;5011480;28;20021;-84
2022/04/23 04:12:01;;;;;;;26.67;16.05;;;;;;;;;;5005785;28;20018;-84
2022/04/23 04:14:15;;;;;;;29.85;16.50;;;;;;;;;;5005885;28;20065;-84
2022/04/23 04:16:40;;;;;;;32.85;17.63;;;;;;;;;;5001996;28;20118;-85
2022/04/23 04:19:06;;;;;;;31.92;16.77;;;;;;;;;;4997200;28;20557;-85
2022/04/23 04:21:31;;;;;;;30.05;16.55;;;;;;;;;;4982624;28;20022;-85
2022/04/23 04:23:57;;;;;;;29.98;18.63;;;;;;;;;;5005623;28;20033;-85
2022/04/23 04:26:22;;;;;;;27.25;16.80;;;;;;;;;;5003250;28;20060;-84
2022/04/23 04:28:47;;;;;;;28.15;16.52;;;;;;;;;;5001316;28;20013;-85
2022/04/23 04:33:56;;;;;;;28.23;17.08;;;;;;;;;;5006895;28;20115;-85
2022/04/23 04:36:21;;;;;;;33.50;18.33;;;;;;;;;;4994772;28;20080;-84
2022/04/23 04:38:47;;;;;;;32.38;18.02;;;;;;;;;;5003607;28;20276;-84
2022/04/23 04:41:12;;;;;;;31.70;16.83;;;;;;;;;;4997775;28;20022;-84
2022/04/23 04:43:37;;;;;;;31.10;18.23;;;;;;;;;;5007005;28;20324;-85
2022/04/23 04:46:02;;;;;;;40.97;18.30;;;;;;;;;;4994756;28;20018;-85
2022/04/23 04:48:28;;;;;;;34.22;18.20;;;;;;;;;;5003698;28;20279;-86
2022/04/23 04:50:53;;;;;;;29.80;18.42;;;;;;;;;;5005127;28;20707;-84
2022/04/23 04:53:18;;;;;;;29.23;18.10;;;;;;;;;;5002593;23;20042;-69
2022/04/23 04:55:43;;;;;;;33.43;18.57;;;;;;;;;;5002991;28;20100;-69
2022/04/23 04:58:08;;;;;;;33.90;19.00;;;;;;;;;;5010292;28;20276;-71
2022/04/23 05:00:33;;;;;;;32.58;18.90;;;;;;;;;;5008691;28;20260;-71
2022/04/23 05:02:59;;;;;;;28.75;18.20;;;;;;;;;;5010243;28;20049;-71
2022/04/23 05:05:24;;;;;;;32.13;18.50;;;;;;;;;;5008085;28;20572;-71
2022/04/23 05:07:49;;;;;;;32.40;18.90;;;;;;;;;;5009201;28;20094;-70
2022/04/23 05:10:14;;;;;;;34.00;19.00;;;;;;;;;;5011040;28;20269;-69
2022/04/23 05:12:40;;;;;;;31.80;18.83;;;;;;;;;;5006708;28;20284;-69
2022/04/23 05:15:05;;;;;;;35.10;18.50;;;;;;;;;;4988011;28;20305;-70
2022/04/23 05:17:30;;;;;;;34.13;19.08;;;;;;;;;;5004379;28;20405;-71
2022/04/23 05:19:56;;;;;;;30.73;18.57;;;;;;;;;;5008206;28;20101;-67
2022/04/23 05:22:21;;;;;;;29.73;18.40;;;;;;;;;;5004007;28;20637;-71
2022/04/23 05:24:46;;;;;;;34.78;19.85;;;;;;;;;;5002503;28;20376;-69
2022/04/23 05:27:11;;;;;;;31.43;19.20;;;;;;;;;;5008483;28;20045;-69
2022/04/23 05:29:36;;;;;;;33.00;17.60;;;;;;;;;;5008257;28;20264;-71
2022/04/23 05:32:02;;;;;;;34.57;18.30;;;;;;;;;;5008032;28;20521;-71
2022/04/23 05:34:28;;;;;;;32.03;17.85;;;;;;;;;;5010186;28;20268;-69
2022/04/23 05:36:54;;;;;;;31.20;18.92;;;;;;;;;;5007797;28;20017;-69
2022/04/23 05:39:19;;;;;;;31.85;18.23;;;;;;;;;;5010621;28;20029;-73
2022/04/23 05:41:44;;;;;;;34.70;18.33;;;;;;;;;;5009233;28;20061;-69
2022/04/23 05:44:09;;;;;;;36.47;18.47;;;;;;;;;;5006229;28;20105;-71
2022/04/23 05:46:34;;;;;;;29.00;17.67;;;;;;;;;;5009512;28;20272;-70
2022/04/23 05:49:00;;;;;;;31.37;18.13;;;;;;;;;;5007503;28;20281;-71
2022/04/23 05:51:25;;;;;;;28.30;17.25;;;;;;;;;;5007755;28;20275;-70
2022/04/23 05:53:50;;;;;;;28.37;17.60;;;;;;;;;;5009159;28;20033;-70
2022/04/23 05:56:15;;;;;;;33.38;18.17;;;;;;;;;;5009066;28;20327;-70
2022/04/23 05:58:40;;;;;;;28.75;16.88;;;;;;;;;;5009765;28;20033;-69
2022/04/23 06:01:06;;;;;;;30.38;17.83;;;;;;;;;;5008189;28;20054;-68
2022/04/23 06:03:31;;;;;;;35.85;17.45;;;;;;;;;;5005429;28;20026;-69
2022/04/23 06:05:56;;;;;;;29.40;17.27;;;;;;;;;;5006533;28;20021;-68
2022/04/23 06:08:21;;;;;;;25.67;14.60;;;;;;;;;;5009490;28;20030;-68
2022/04/23 06:10:47;;;;;;;32.38;18.05;;;;;;;;;;5009238;28;20028;-67
2022/04/23 06:13:12;;;;;;;26.80;17.02;;;;;;;;;;5009196;28;20032;-69
2022/04/23 06:15:37;;;;;;;28.93;16.40;;;;;;;;;;5004895;28;20024;-70
2022/04/23 06:18:02;;;;;;;31.77;17.65;;;;;;;;;;5005257;28;20273;-71
2022/04/23 06:20:28;;;;;;;27.23;15.80;;;;;;;;;;5007089;28;20014;-68
2022/04/23 06:22:53;;;;;;;27.40;16.10;;;;;;;;;;5004339;28;20021;-70
2022/04/23 06:25:18;;;;;;;25.50;16.90;;;;;;;;;;5004500;28;20360;-70
2022/04/23 06:27:43;;;;;;;13.07;6.35;;;;;;;;;;5009476;28;20680;-69
2022/04/23 06:30:09;;;;;;;26.63;16.27;;;;;;;;;;5008938;28;20109;-72
2022/04/23 06:32:35;;;;;;;24.38;12.13;;;;;;;;;;5008168;28;20059;-73
2022/04/23 06:35:01;;;;;;;15.07;8.32;;;;;;;;;;5006020;28;20064;-73
2022/04/23 06:37:26;;;;;;;20.63;12.95;;;;;;;;;;5007085;28;20026;-73
2022/04/23 06:39:51;;;;;;;19.63;9.17;;;;;;;;;;4990328;28;20075;-73
2022/04/23 06:42:16;;;;;;;18.85;10.20;;;;;;;;;;5010589;28;20273;-73
2022/04/23 06:44:41;;;;;;;14.68;9.27;;;;;;;;;;4993722;28;20033;-73
2022/04/23 06:47:07;;;;;;;20.08;11.25;;;;;;;;;;5010480;28;20013;-73
2022/04/23 06:49:32;;;;;;;19.43;11.53;;;;;;;;;;5011962;28;20030;-73
2022/04/23 06:51:57;;;;;;;24.80;14.40;;;;;;;;;;5009136;28;20264;-73
2022/04/23 06:54:23;;;;;;;22.52;10.27;;;;;;;;;;5008628;28;20640;-72
2022/04/23 06:56:48;;;;;;;22.00;12.57;;;;;;;;;;5011262;28;20466;-71
2022/04/23 06:59:13;;;;;;;25.10;12.90;;;;;;;;;;5010312;28;20179;-69
2022/04/23 07:01:40;;;;;;;21.63;13.82;;;;;;;;;;5009704;28;20770;-69
2022/04/23 07:04:06;;;;;;;15.52;9.13;;;;;;;;;;5010583;28;20018;-71
2022/04/23 07:06:31;;;;;;;19.73;10.05;;;;;;;;;;5010570;28;20385;-70
2022/04/23 07:08:56;;;;;;;19.00;11.75;;;;;;;;;;5007791;28;20367;-72
2022/04/23 07:11:23;;;;;;;19.73;12.07;;;;;;;;;;5011049;28;20466;-71
2022/04/23 07:13:48;;;;;;;17.42;11.13;;;;;;;;;;5011352;28;20322;-72
2022/04/23 07:16:15;;;;;;;15.00;11.27;;;;;;;;;;5009908;28;20406;-71
2022/04/23 07:18:40;;;;;;;19.27;12.95;;;;;;;;;;5009202;28;20265;-72
2022/04/23 07:21:05;;;;;;;18.20;11.97;;;;;;;;;;5009535;28;20496;-73
2022/04/23 07:26:14;;;;;;;14.52;11.10;;;;;;;;;;5011000;28;20037;-71
2022/04/23 07:28:40;;;;;;;14.20;9.87;;;;;;;;;;5012796;28;20463;-72
2022/04/23 07:31:05;;;;;;;16.17;9.93;;;;;;;;;;5003278;28;20328;-73
2022/04/23 07:38:58;;;;;;;15.43;10.38;;;;;;;;;;5009227;28;20021;-72
2022/04/23 07:41:23;;;;;;;13.20;10.00;;;;;;;;;;5011579;28;20021;-73
2022/04/23 07:43:48;;;;;;;15.60;9.17;;;;;;;;;;5011643;28;20434;-73
2022/04/23 07:46:13;;;;;;;16.17;10.65;;;;;;;;;;5009525;28;20017;-72
2022/04/23 07:48:39;;;;;;;15.90;10.53;;;;;;;;;;5010463;28;20014;-73
2022/04/23 07:51:04;;;;;;;12.70;10.33;;;;;;;;;;5011739;28;20034;-73
2022/04/23 07:53:29;;;;;;;18.27;4.82;;;;;;;;;;5010639;28;20116;-73
2022/04/23 07:55:54;;;;;;;14.50;9.67;;;;;;;;;;5011386;28;20537;-73
2022/04/23 07:58:19;;;;;;;14.73;11.35;;;;;;;;;;5011660;28;20022;-73
2022/04/23 08:00:45;;;;;;;12.37;9.03;;;;;;;;;;5011049;28;20025;-72
2022/04/23 08:03:10;;;;;;;15.35;9.32;;;;;;;;;;4993500;28;20045;-73
2022/04/23 08:05:35;;;;;;;9.95;7.00;;;;;;;;;;5011748;28;20014;-73
2022/04/23 08:08:01;;;;;;;10.25;6.85;;;;;;;;;;5010395;28;20029;-73
2022/04/23 08:10:26;;;;;;;10.95;5.28;;;;;;;;;;5010879;28;20018;-73
2022/04/23 08:12:52;;;;;;;14.20;8.98;;;;;;;;;;5010845;28;20390;-73
2022/04/23 08:15:17;;;;;;;9.80;5.85;;;;;;;;;;5009685;28;20030;-72
2022/04/23 08:17:42;;;;;;;11.87;6.97;;;;;;;;;;5010568;28;20083;-72
2022/04/23 08:20:08;;;;;;;13.80;9.57;;;;;;;;;;5010860;28;20340;-71
2022/04/23 08:22:34;;;;;;;12.90;8.52;;;;;;;;;;5010030;28;20496;-72
2022/04/23 08:24:59;;;;;;;11.88;8.98;;;;;;;;;;5009906;28;20407;-67
2022/04/23 08:27:24;;;;;;;14.35;9.38;;;;;;;;;;5010451;28;20018;-72
2022/04/23 08:32:53;;;;;;;10.95;7.28;;;;;;;;;;4950067;29;20088;-73
2022/04/23 08:35:18;;;;;;;19.83;9.05;;;;;;;;;;4950032;29;20475;-72
2022/04/23 08:37:43;;;;;;;11.35;7.22;;;;;;;;;;4977449;28;20502;-72
2022/04/23 08:40:10;;;;;;;11.47;8.67;;;;;;;;;;5010838;28;20031;-72
2022/04/23 08:42:36;;;;;;;9.07;6.65;;;;;;;;;;5010820;28;20537;-72
2022/04/23 08:45:01;;;;;;;13.52;7.53;;;;;;;;;;5010106;28;20096;-72
2022/04/23 08:47:26;;;;;;;12.30;8.33;;;;;;;;;;5010509;28;20241;-73
2022/04/23 08:49:54;;;;;;;15.02;10.00;;;;;;;;;;4993240;28;20018;-73
2022/04/23 08:52:31;;;;;;;14.30;8.82;;;;;;;;;;5009348;28;20014;-72
2022/04/23 08:54:57;;;;;;;12.13;8.30;;;;;;;;;;5007136;28;20434;-72
2022/04/23 08:57:22;;;;;;;10.82;7.97;;;;;;;;;;5010167;28;20018;-72
2022/04/23 08:59:51;;;;;;;8.57;4.88;;;;;;;;;;5009466;28;20092;-71
2022/04/23 09:02:17;;;;;;;6.43;4.00;;;;;;;;;;4992619;28;20430;-73
2022/04/23 09:04:42;;;;;;;12.65;8.18;;;;;;;;;;5008779;28;20048;-73
2022/04/23 09:07:16;;;;;;;17.08;8.15;;;;;;;;;;5010085;28;20052;-72
2022/04/23 09:09:46;;;;;;;19.67;9.30;;;;;;;;;;5010023;28;20053;-73
2022/04/23 09:12:12;;;;;;;14.98;9.13;;;;;;;;;;5009948;28;20072;-73
2022/04/23 09:14:38;;;;;;;16.63;10.07;;;;;;;;;;5008436;28;20036;-72
2022/04/23 09:25:16;;;;;;;15.70;7.25;;;;;;;;;;5010256;28;20072;-73
2022/04/23 09:27:43;;;;;;;12.80;7.93;;;;;;;;;;5010921;28;20026;-73
2022/04/23 09:30:09;;;;;;;14.35;9.30;;;;;;;;;;5010817;28;20018;-72
2022/04/23 09:32:35;;;;;;;18.02;10.65;;;;;;;;;;5010780;28;20545;-73
2022/04/23 09:35:04;;;;;;;15.93;7.60;;;;;;;;;;5010508;28;20026;-71
2022/04/23 09:38:11;;;;;;;7.97;5.33;;;;;;;;;;5010352;28;20569;-73
2022/04/23 09:40:18;;;;;;;13.52;8.68;;;;;;;;;;4990945;28;20268;-73
2022/04/23 09:42:53;;;;;;;14.10;7.45;;;;;;;;;;4990965;28;20023;-73
2022/04/23 09:45:19;;;;;;;13.48;8.00;;;;;;;;;;4990898;28;20097;-73
2022/04/23 09:47:45;;;;;;;10.87;6.03;;;;;;;;;;4991139;28;20439;-72
2022/04/23 09:50:13;;;;;;;12.88;7.60;;;;;;;;;;5001742;28;20269;-73
2022/04/23 09:52:39;;;;;;;15.73;8.52;;;;;;;;;;5010451;28;20057;-73
2022/04/23 09:55:06;;;;;;;13.25;8.55;;;;;;;;;;5010578;28;20022;-72
2022/04/23 09:57:31;;;;;;;20.02;8.13;;;;;;;;;;5010389;28;20022;-73
2022/04/23 09:59:56;;;;;;;11.80;7.05;;;;;;;;;;5010618;28;20528;-72
2022/04/23 10:02:23;;;;;;;12.50;8.93;;;;;;;;;;5010583;28;20022;-73
2022/04/23 10:04:49;;;;;;;14.85;8.52;;;;;;;;;;5009919;28;20276;-73
2022/04/23 10:07:18;;;;;;;9.45;6.70;;;;;;;;;;5010667;28;20040;-73
2022/04/23 10:09:45;;;;;;;11.73;7.57;;;;;;;;;;5010771;28;20010;-71
2022/04/23 10:12:12;;;;;;;17.42;8.00;;;;;;;;;;5010697;28;20435;-73
2022/04/23 10:14:43;;;;;;;18.50;9.48;;;;;;;;;;5010751;28;20061;-73
2022/04/23 10:17:10;;;;;;;15.13;6.63;;;;;;;;;;5013022;28;20021;-74
2022/04/23 10:19:36;;;;;;;14.38;8.15;;;;;;;;;;5013893;28;20477;-73
2022/04/23 10:22:07;;;;;;;9.52;6.03;;;;;;;;;;5014417;28;20041;-73
2022/04/23 10:24:38;;;;;;;18.15;10.90;;;;;;;;;;5013906;28;20072;-73
2022/04/23 10:27:07;;;;;;;12.65;8.23;;;;;;;;;;5013768;28;20026;-72
2022/04/23 10:29:32;;;;;;;18.00;8.98;;;;;;;;;;5014124;28;20053;-72
2022/04/23 10:32:13;;;;;;;17.70;9.20;;;;;;;;;;5013768;28;20045;-73
2022/04/23 10:34:38;;;;;;;;;;;;;;;;;;5014236;28;20026;-73
2022/04/23 10:37:12;;;;;;;7.30;4.82;;;;;;;;;;5014051;28;20579;-73
2022/04/23 10:39:38;;;;;;;12.15;7.05;;;;;;;;;;5014506;28;20052;-72
2022/04/23 10:42:03;;;;;;;16.45;10.30;;;;;;;;;;5014271;28;20065;-73
2022/04/23 10:44:30;;;;;;;14.55;7.40;;;;;;;;;;5013529;28;20049;-72
2022/04/23 10:46:58;;;;;;;18.00;6.60;;;;;;;;;;5013463;28;20076;-73
2022/04/23 10:49:24;;;;;;;11.40;6.47;;;;;;;;;;5013895;28;20021;-74
2022/04/23 10:51:50;;;;;;;12.02;5.78;;;;;;;;;;5013570;28;20026;-72
2022/04/23 10:54:16;;;;;;;11.55;6.82;;;;;;;;;;5013452;28;20044;-73
2022/04/23 10:56:43;;;;;;;15.70;8.07;;;;;;;;;;5013262;28;20473;-71
2022/04/23 10:59:27;;;;;;;15.68;7.70;;;;;;;;;;5013676;28;20018;-74
2022/04/23 11:01:53;;;;;;;18.30;9.77;;;;;;;;;;5000085;28;20026;-71
2022/04/23 11:04:21;;;;;;;15.93;10.43;;;;;;;;;;4993837;28;20022;-70
2022/04/23 11:12:14;;;;;;;14.57;9.70;;;;;;;;;;4996620;28;20763;-68
2022/04/23 11:12:38;;;;;;;19.50;9.30;;;;;;;;;;5013048;28;20024;-69
2022/04/23 11:15:22;;;;;;;13.88;8.75;;;;;;;;;;4995336;28;20049;-69
2022/04/23 11:17:53;;;;;;;18.52;9.15;;;;;;;;;;5013148;28;20113;-71
2022/04/23 11:20:25;;;;;;;19.77;8.88;;;;;;;;;;4995580;28;20022;-69
2022/04/23 11:22:51;;;;;;;15.27;7.68;;;;;;;;;;5012638;28;20033;-69
2022/04/23 11:25:16;;;;;;;15.60;9.52;;;;;;;;;;5012854;28;20022;-69
2022/04/23 11:27:47;;;;;;;14.50;9.05;;;;;;;;;;5012579;28;20085;-71
2022/04/23 11:30:12;;;;;;;9.55;5.97;;;;;;;;;;5013047;28;20080;-70
2022/04/23 11:32:37;;;;;;;11.93;7.07;;;;;;;;;;5013112;28;20026;-69
2022/04/23 11:35:04;;;;;;;13.40;9.20;;;;;;;;;;5012689;28;20025;-70
2022/04/23 11:37:33;;;;;;;13.35;6.88;;;;;;;;;;4995269;28;20272;-70
2022/04/23 11:40:05;;;;;;;16.70;9.32;;;;;;;;;;5012638;28;20018;-69
2022/04/23 11:42:37;;;;;;;13.73;9.40;;;;;;;;;;5012839;28;20022;-69
2022/04/23 11:45:02;;;;;;;14.27;8.93;;;;;;;;;;4995068;28;20084;-69
2022/04/23 11:47:28;;;;;;;17.80;11.07;;;;;;;;;;5012440;28;20097;-69
2022/04/23 11:49:53;;;;;;;17.42;9.90;;;;;;;;;;5007201;28;20022;-71
2022/04/23 11:52:19;;;;;;;13.80;8.00;;;;;;;;;;4992935;28;20022;-69
2022/04/23 11:54:45;;;;;;;13.30;7.68;;;;;;;;;;4992727;28;20022;-69
2022/04/23 11:57:11;;;;;;;12.60;6.93;;;;;;;;;;4992837;28;20026;-69
2022/04/23 11:59:36;;;;;;;13.75;8.20;;;;;;;;;;4992655;28;20092;-69
2022/04/23 12:02:02;;;;;;;11.85;7.82;;;;;;;;;;4992636;28;20022;-69
2022/04/23 12:04:39;;;;;;;14.65;8.88;;;;;;;;;;4992673;28;20038;-69
2022/04/23 12:07:04;;;;;;;13.50;7.18;;;;;;;;;;5003080;28;20018;-69
2022/04/23 12:09:30;;;;;;;14.25;7.78;;;;;;;;;;5012238;28;20022;-69
2022/04/23 12:11:59;;;;;;;16.63;8.43;;;;;;;;;;5012065;28;20474;-69
2022/04/23 12:14:25;;;;;;;17.00;8.17;;;;;;;;;;5012128;28;20261;-69
2022/04/23 12:16:50;;;;;;;20.52;9.05;;;;;;;;;;5011836;28;20014;-69
2022/04/23 12:19:17;;;;;;;10.10;6.47;;;;;;;;;;5012077;28;20038;-69
2022/04/23 12:21:55;;;;;;;10.60;7.05;;;;;;;;;;4992811;28;20279;-72
2022/04/23 12:24:30;;;;;;;12.70;7.90;;;;;;;;;;5011690;28;20022;-70
2022/04/23 12:27:00;;;;;;;14.90;9.35;;;;;;;;;;5011862;28;20022;-69
2022/04/23 12:40:46;;;;;;;13.02;7.15;;;;;;;;;;5011197;28;20104;-70
2022/04/23 12:43:24;;;;;;;20.48;8.80;;;;;;;;;;5011705;28;20065;-69
2022/04/23 12:45:50;;;;;;;12.60;8.02;;;;;;;;;;5010928;28;20022;-69
2022/04/23 12:48:16;;;;;;;18.95;10.75;;;;;;;;;;5009207;28;20153;-69
2022/04/23 12:50:44;;;;;;;15.68;7.70;;;;;;;;;;5009688;28;20025;-69
2022/04/23 12:53:10;;;;;;;15.00;9.00;;;;;;;;;;5009815;28;20099;-69
2022/04/23 12:55:38;;;;;;;15.10;9.80;;;;;;;;;;5010943;28;20045;-70
2022/04/23 12:58:03;;;;;;;16.83;8.95;;;;;;;;;;5010640;28;20522;-71
2022/04/23 13:00:29;;;;;;;14.90;9.25;;;;;;;;;;5010614;28;20030;-69
2022/04/23 13:02:58;;;;;;;15.82;8.73;;;;;;;;;;5005799;28;20381;-69
2022/04/23 13:05:24;;;;;;;11.60;7.18;;;;;;;;;;5002650;28;20026;-73
2022/04/23 13:10:53;;;;;;;13.27;8.10;;;;;;;;;;4950211;29;20140;-69
2022/04/23 13:13:18;;;;;;;15.83;9.37;;;;;;;;;;4949882;29;20020;-69
2022/04/23 13:15:43;;;;;;;13.67;8.37;;;;;;;;;;4957846;28;20253;-69
2022/04/23 13:18:09;;;;;;;16.80;8.27;;;;;;;;;;5009472;28;20741;-70
2022/04/23 13:20:34;;;;;;;13.02;8.15;;;;;;;;;;5010129;28;20028;-71
2022/04/23 13:23:00;;;;;;;14.15;7.75;;;;;;;;;;5009716;28;20026;-69
2022/04/23 13:25:25;;;;;;;13.10;9.43;;;;;;;;;;4992942;28;20021;-69
2022/04/23 13:27:51;;;;;;;12.05;6.43;;;;;;;;;;5010654;28;20029;-70
2022/04/23 13:30:17;;;;;;;12.52;5.68;;;;;;;;;;4993390;28;20018;-69
2022/04/23 13:32:42;;;;;;;14.35;8.10;;;;;;;;;;5011001;28;20080;-69
2022/04/23 13:35:10;;;;;;;14.43;10.45;;;;;;;;;;4994151;28;20038;-69
2022/04/23 13:37:35;;;;;;;15.55;9.25;;;;;;;;;;4998757;28;20057;-69
2022/04/23 13:40:00;;;;;;;26.00;10.43;;;;;;;;;;5010813;28;20418;-71
2022/04/23 13:42:26;;;;;;;12.73;6.47;;;;;;;;;;4999858;28;20284;-69
2022/04/23 13:44:51;;;;;;;15.73;9.30;;;;;;;;;;4990959;28;20428;-72
2022/04/23 13:47:16;;;;;;;16.98;9.02;;;;;;;;;;4991175;28;20399;-69
2022/04/23 13:49:42;;;;;;;14.90;9.55;;;;;;;;;;4973938;28;20058;-70
2022/04/23 13:52:08;;;;;;;15.55;9.18;;;;;;;;;;5011505;28;20486;-70
2022/04/23 13:54:33;;;;;;;11.48;6.00;;;;;;;;;;5014760;28;20026;-69
2022/04/23 13:57:00;;;;;;;11.90;7.37;;;;;;;;;;5014534;28;20037;-69
2022/04/23 13:59:25;;;;;;;16.15;7.13;;;;;;;;;;4997088;28;20327;-68
2022/04/23 14:10:05;;;;;;;16.55;9.02;;;;;;;;;;5014501;28;20025;-68
2022/04/23 14:12:31;;;;;;;16.73;9.30;;;;;;;;;;5014473;28;20377;-69
2022/04/23 14:14:56;;;;;;;17.65;9.68;;;;;;;;;;5014293;28;20026;-69
2022/04/23 14:17:21;;;;;;;14.63;9.68;;;;;;;;;;5014152;28;20026;-69
2022/04/23 14:19:46;;;;;;;16.25;9.48;;;;;;;;;;4998140;28;20110;-71
2022/04/23 14:22:12;;;;;;;15.07;7.50;;;;;;;;;;4994802;28;20069;-69
2022/04/23 14:24:37;;;;;;;13.52;9.07;;;;;;;;;;4994428;28;20027;-69
2022/04/23 14:27:02;;;;;;;13.98;9.60;;;;;;;;;;4994453;28;20026;-70
2022/04/23 14:29:28;;;;;;;19.02;10.13;;;;;;;;;;4994556;28;20114;-68
2022/04/23 14:31:53;;;;;;;10.50;7.17;;;;;;;;;;4994442;28;20479;-69
2022/04/23 14:34:18;;;;;;;15.80;9.67;;;;;;;;;;5009460;28;20275;-68
2022/04/23 14:36:43;;;;;;;13.07;5.53;;;;;;;;;;5013742;28;20268;-69
2022/04/23 14:39:08;;;;;;;11.27;6.00;;;;;;;;;;4996505;28;20263;-68
2022/04/23 14:41:34;;;;;;;7.07;4.73;;;;;;;;;;5014018;28;20059;-71
2022/04/23 14:43:59;;;;;;;14.95;9.32;;;;;;;;;;5013505;28;20284;-69
2022/04/23 14:46:24;;;;;;;13.20;5.60;;;;;;;;;;5013520;28;20054;-68
2022/04/23 14:48:50;;;;;;;11.20;7.38;;;;;;;;;;4999909;28;20268;-68
2022/04/23 14:53:59;;;;;;;14.38;9.07;;;;;;;;;;4994187;28;20041;-68
2022/04/23 14:56:28;;;;;;;14.50;8.07;;;;;;;;;;4999759;28;20018;-69
2022/04/23 14:58:53;;;;;;;15.40;9.68;;;;;;;;;;5013476;28;20057;-69
2022/04/23 15:01:20;;;;;;;18.30;9.53;;;;;;;;;;5013544;28;20062;-68
2022/04/23 15:03:46;;;;;;;18.77;8.65;;;;;;;;;;5012597;28;20295;-70
2022/04/23 15:06:12;;;;;;;13.40;8.88;;;;;;;;;;5013139;28;20036;-69
2022/04/23 15:08:38;;;;;;;15.27;9.43;;;;;;;;;;5013327;28;20374;-69